createdAt,value
2022-08-14T00:02:22.961Z,1.90
2022-08-14T00:04:53.563Z,2.08
2022-08-14T00:07:22.580Z,2.28
2022-08-14T00:10:02.268Z,2.20
2022-08-14T00:12:41.682Z,2.53
2022-08-14T00:15:15.142Z,2.60
2022-08-14T00:17:47.489Z,2.58
2022-08-14T00:20:16.155Z,2.60
2022-08-14T00:22:57.634Z,2.00
2022-08-14T00:25:41.623Z,2.25
2022-08-14T00:28:11.192Z,2.30
2022-08-14T00:30:46.681Z,2.67
2022-08-14T00:33:18.162Z,2.30
2022-08-14T00:36:35.189Z,2.50
2022-08-14T00:38:36.561Z,2.40
2022-08-14T00:41:10.952Z,2.15
2022-08-14T00:43:43.139Z,2.85
2022-08-14T00:46:23.399Z,2.33
2022-08-14T00:48:59.225Z,2.90
2022-08-14T00:51:36.779Z,2.40
2022-08-14T00:54:20.851Z,2.55
2022-08-14T00:56:55.459Z,2.45
2022-08-14T00:59:28.539Z,2.65
2022-08-14T01:02:00.825Z,2.92
2022-08-14T01:04:38.215Z,3.25
2022-08-14T01:07:23.805Z,3.00
2022-08-14T01:09:55.927Z,2.90
2022-08-14T01:12:30.266Z,2.78
2022-08-14T01:15:05.415Z,2.47
2022-08-14T01:17:55.244Z,3.30
2022-08-14T01:20:41.336Z,2.72
2022-08-14T01:23:15.619Z,3.00
2022-08-14T01:25:46.941Z,3.10
2022-08-14T01:28:46.210Z,2.47
2022-08-14T01:31:08.595Z,2.55
2022-08-14T01:33:59.139Z,3.08
2022-08-14T01:36:36.559Z,2.83
2022-08-14T01:39:15.396Z,2.42
2022-08-14T01:41:53.508Z,3.10
2022-08-14T01:44:31.307Z,2.90
2022-08-14T01:47:12.187Z,3.17
2022-08-14T01:49:59.416Z,2.70
2022-08-14T01:52:34.278Z,2.80
2022-08-14T01:55:18.106Z,2.85
2022-08-14T01:58:00.537Z,2.58
2022-08-14T02:00:35.950Z,2.55
2022-08-14T02:03:06.785Z,2.70
2022-08-14T02:05:38.638Z,2.85
2022-08-14T02:10:46.434Z,2.63
2022-08-14T02:13:19.651Z,2.70
2022-08-14T02:15:48.703Z,2.80
2022-08-14T02:18:18.047Z,3.22
2022-08-14T02:20:45.458Z,2.72
2022-08-14T02:23:14.346Z,3.13
2022-08-14T02:25:44.143Z,2.95
2022-08-14T02:28:56.794Z,3.03
2022-08-14T02:31:14.895Z,2.90
2022-08-14T02:33:47.364Z,2.90
2022-08-14T02:37:03.978Z,2.95
2022-08-14T02:39:05.706Z,3.08
2022-08-14T02:41:38.923Z,3.10
2022-08-14T02:44:10.453Z,3.08
2022-08-14T02:46:44.755Z,3.00
2022-08-14T02:49:27.477Z,3.38
2022-08-14T02:52:01.346Z,3.10
2022-08-14T02:54:37.658Z,3.38
2022-08-14T02:57:15.289Z,3.47
2022-08-14T02:59:43.867Z,2.97
2022-08-14T03:02:33.351Z,2.92
2022-08-14T03:05:00.312Z,3.00
2022-08-14T03:07:29.547Z,2.70
2022-08-14T03:10:25.809Z,3.50
2022-08-14T03:12:46.408Z,2.85
2022-08-14T03:15:19.251Z,3.15
2022-08-14T03:17:58.262Z,4.18
2022-08-14T03:20:31.283Z,3.50
2022-08-14T03:23:03.200Z,3.25
2022-08-14T03:25:33.354Z,3.40
2022-08-14T03:28:14.860Z,3.30
2022-08-14T03:31:02.665Z,3.50
2022-08-14T03:33:37.384Z,3.33
2022-08-14T03:37:28.666Z,3.13
2022-08-14T03:39:16.052Z,3.50
2022-08-14T03:41:48.510Z,3.03
2022-08-14T03:45:25.640Z,4.00
2022-08-14T03:47:04.726Z,3.35
2022-08-14T03:49:32.151Z,3.47
2022-08-14T03:52:17.982Z,3.13
2022-08-14T03:54:54.026Z,3.58
2022-08-14T03:57:23.895Z,3.33
2022-08-14T03:59:50.946Z,3.20
2022-08-14T04:02:33.002Z,3.45
2022-08-14T04:05:11.847Z,3.42
2022-08-14T04:07:49.525Z,3.30
2022-08-14T04:10:32.483Z,3.10
2022-08-14T04:13:03.485Z,3.55
2022-08-14T04:15:56.246Z,3.47
2022-08-14T04:18:20.527Z,3.80
2022-08-14T04:20:55.172Z,3.30
2022-08-14T04:23:24.069Z,3.20
2022-08-14T04:25:56.815Z,3.20
2022-08-14T04:29:08.562Z,3.13
2022-08-14T04:31:11.194Z,3.55
2022-08-14T04:33:42.800Z,3.63
2022-08-14T04:36:15.955Z,3.28
2022-08-14T04:39:05.710Z,3.30
2022-08-14T04:41:53.582Z,3.78
2022-08-14T04:44:26.796Z,3.30
2022-08-14T04:47:24.153Z,3.67
2022-08-14T04:49:57.348Z,3.08
2022-08-14T04:52:25.329Z,3.47
2022-08-14T04:54:52.604Z,3.58
2022-08-14T04:57:21.839Z,2.92
2022-08-14T04:59:50.856Z,3.22
2022-08-14T05:02:21.461Z,3.50
2022-08-14T05:04:57.188Z,3.22
2022-08-14T05:07:46.437Z,3.35
2022-08-14T05:10:16.737Z,3.20
2022-08-14T05:13:12.906Z,3.45
2022-08-14T05:15:41.708Z,3.38
2022-08-14T05:18:37.057Z,3.55
2022-08-14T05:21:59.493Z,3.08
2022-08-14T05:23:58.931Z,3.20
2022-08-14T05:26:28.568Z,2.83
2022-08-14T05:28:57.487Z,3.60
2022-08-14T05:31:24.303Z,3.55
2022-08-14T05:36:36.423Z,3.33
2022-08-14T05:39:06.499Z,3.75
2022-08-14T05:41:52.776Z,3.83
2022-08-14T05:44:21.001Z,3.30
2022-08-14T05:46:48.004Z,3.20
2022-08-14T05:49:16.904Z,3.58
2022-08-14T05:51:47.035Z,3.58
2022-08-14T05:54:27.131Z,3.33
2022-08-14T05:56:57.501Z,3.42
2022-08-14T05:59:36.345Z,3.60
2022-08-14T06:02:05.828Z,3.90
2022-08-14T06:04:32.859Z,3.60
2022-08-14T06:06:59.657Z,3.35
2022-08-14T06:09:28.894Z,3.42
2022-08-14T06:12:02.399Z,3.20
2022-08-14T06:14:31.557Z,3.47
2022-08-14T06:16:58.755Z,3.30
2022-08-14T06:19:26.506Z,3.55
2022-08-14T06:21:58.290Z,3.10
2022-08-14T06:24:26.789Z,2.85
2022-08-14T06:26:56.938Z,2.97
2022-08-14T06:29:33.507Z,3.10
2022-08-14T06:32:38.011Z,3.15
2022-08-14T06:35:09.623Z,2.80
2022-08-14T06:37:46.954Z,3.53
2022-08-14T06:40:27.323Z,3.00
2022-08-14T06:42:56.774Z,2.90
2022-08-14T06:45:30.209Z,3.08
2022-08-14T06:48:01.240Z,2.30
2022-08-14T06:50:30.314Z,2.90
2022-08-14T06:52:58.647Z,2.50
2022-08-14T06:55:29.408Z,2.78
2022-08-14T06:58:01.021Z,3.17
2022-08-14T07:00:30.573Z,2.50
2022-08-14T07:03:17.152Z,2.75
2022-08-14T07:05:55.506Z,2.70
2022-08-14T07:08:31.516Z,2.67
2022-08-14T07:11:01.227Z,2.97
2022-08-14T07:13:28.557Z,3.33
2022-08-14T07:16:00.822Z,2.70
2022-08-14T07:18:34.284Z,2.30
2022-08-14T07:21:02.815Z,2.45
2022-08-14T07:23:32.919Z,2.10
2022-08-14T07:26:02.866Z,2.30
2022-08-14T07:28:31.996Z,2.72
2022-08-14T07:31:07.333Z,2.55
2022-08-14T07:33:49.987Z,2.63
2022-08-14T07:36:29.892Z,2.67
2022-08-14T07:39:03.494Z,2.00
2022-08-14T07:41:42.482Z,2.20
2022-08-14T07:44:31.987Z,2.28
2022-08-14T07:46:59.056Z,2.30
2022-08-14T07:49:29.343Z,2.83
2022-08-14T07:51:59.937Z,2.75
2022-08-14T07:54:29.863Z,2.60
2022-08-14T07:57:00.865Z,2.47
2022-08-14T07:59:41.205Z,2.03
2022-08-14T08:02:18.922Z,2.45
2022-08-14T08:04:59.206Z,2.20
2022-08-14T08:07:30.503Z,2.25
2022-08-14T08:09:59.976Z,2.20
2022-08-14T08:12:32.300Z,2.20
2022-08-14T08:15:05.762Z,2.10
2022-08-14T08:17:38.804Z,2.05
2022-08-14T08:20:16.861Z,1.80
2022-08-14T08:23:00.392Z,2.00
2022-08-14T08:25:39.715Z,1.90
2022-08-14T08:28:26.460Z,2.00
2022-08-14T08:31:00.146Z,1.52
2022-08-14T08:33:37.525Z,1.67
2022-08-14T08:36:12.670Z,1.90
2022-08-14T08:39:16.369Z,1.80
2022-08-14T08:41:27.998Z,2.10
2022-08-14T08:46:33.167Z,1.85
2022-08-14T08:51:34.353Z,1.92
2022-08-14T08:54:14.991Z,1.88
2022-08-14T08:56:52.461Z,1.58
2022-08-14T08:59:31.065Z,1.70
2022-08-14T09:02:06.912Z,2.20
2022-08-14T09:04:52.855Z,1.80
2022-08-14T09:07:29.246Z,1.70
2022-08-14T09:09:59.531Z,1.73
2022-08-14T09:12:31.778Z,1.63
2022-08-14T09:15:01.678Z,1.75
2022-08-14T09:17:28.566Z,1.73
2022-08-14T09:19:55.852Z,1.92
2022-08-14T09:22:33.347Z,1.80
2022-08-14T09:25:07.374Z,1.80
2022-08-14T09:27:38.036Z,2.10
2022-08-14T09:30:30.835Z,1.90
2022-08-14T09:33:09.230Z,1.90
2022-08-14T09:35:59.597Z,2.00
2022-08-14T09:38:58.883Z,2.00
2022-08-14T09:42:21.796Z,2.10
2022-08-14T09:44:56.710Z,2.15
2022-08-14T09:47:46.058Z,2.30
2022-08-14T09:50:22.003Z,2.20
2022-08-14T09:52:57.140Z,1.90
2022-08-14T09:58:19.370Z,2.20
2022-08-14T10:00:57.022Z,2.20
2022-08-14T10:03:33.995Z,2.25
2022-08-14T10:06:11.977Z,2.22
2022-08-14T10:08:54.407Z,2.00
2022-08-14T10:11:35.180Z,2.10
2022-08-14T10:14:35.130Z,2.70
2022-08-14T10:17:06.958Z,2.35
2022-08-14T10:19:35.768Z,2.30
2022-08-14T10:23:15.492Z,2.40
2022-08-14T10:24:50.837Z,2.60
2022-08-14T10:27:28.096Z,2.17
2022-08-14T10:30:00.933Z,2.10
2022-08-14T10:32:39.935Z,2.38
2022-08-14T10:35:16.805Z,2.30
2022-08-14T10:37:48.038Z,2.53
2022-08-14T10:43:17.296Z,2.35
2022-08-14T10:46:03.987Z,2.20
2022-08-14T10:49:00.170Z,2.50
2022-08-14T10:51:30.015Z,2.20
2022-08-14T10:54:16.459Z,2.40
2022-08-14T10:56:55.708Z,2.58
2022-08-14T10:59:30.845Z,2.10
2022-08-14T11:02:35.839Z,2.40
2022-08-14T11:05:18.463Z,2.20
2022-08-14T11:07:59.727Z,2.45
2022-08-14T11:10:57.366Z,2.10
2022-08-14T11:13:28.906Z,2.50
2022-08-14T11:16:02.415Z,2.13
2022-08-14T11:18:39.866Z,2.42
2022-08-14T11:21:08.361Z,2.55
2022-08-14T11:23:41.360Z,2.80
2022-08-14T11:26:13.392Z,2.15
2022-08-14T11:28:48.169Z,2.30
2022-08-14T11:31:26.265Z,2.45
2022-08-14T11:34:10.452Z,2.20
2022-08-14T11:37:09.787Z,2.22
2022-08-14T11:39:45.411Z,2.42
2022-08-14T11:42:56.758Z,2.38
2022-08-14T11:45:17.064Z,2.78
2022-08-14T11:48:13.642Z,2.88
2022-08-14T11:50:37.070Z,2.60
2022-08-14T11:53:20.611Z,2.47
2022-08-14T11:55:57.576Z,2.42
2022-08-14T11:58:36.760Z,2.60
2022-08-14T12:01:09.431Z,2.42
2022-08-14T12:03:46.859Z,2.72
2022-08-14T12:06:29.106Z,2.33
2022-08-14T12:09:08.630Z,2.50
2022-08-14T12:11:43.888Z,2.50
2022-08-14T12:14:29.993Z,2.35
2022-08-14T12:17:13.352Z,2.40
2022-08-14T12:19:50.629Z,2.45
2022-08-14T12:22:29.435Z,2.47
2022-08-14T12:24:56.773Z,2.47
2022-08-14T12:27:34.262Z,2.72
2022-08-14T12:30:05.958Z,3.13
2022-08-14T12:32:43.879Z,2.30
2022-08-14T12:35:11.588Z,2.15
2022-08-14T12:37:40.098Z,2.30
2022-08-14T12:40:15.603Z,2.38
2022-08-14T12:42:47.450Z,2.22
2022-08-14T12:45:31.372Z,2.53
2022-08-14T12:48:21.350Z,2.20
2022-08-14T12:50:54.237Z,2.00
2022-08-14T12:53:36.220Z,2.30
2022-08-14T12:56:22.782Z,2.28
2022-08-14T12:58:59.226Z,2.30
2022-08-14T13:01:28.685Z,2.10
2022-08-14T13:04:16.003Z,2.10
2022-08-14T13:06:51.097Z,2.13
2022-08-14T13:09:19.798Z,2.05
2022-08-14T13:11:59.112Z,2.33
2022-08-14T13:14:39.405Z,2.03
2022-08-14T13:17:07.490Z,2.13
2022-08-14T13:19:40.637Z,2.00
2022-08-14T13:22:10.177Z,1.80
2022-08-14T13:24:47.793Z,1.90
2022-08-14T13:27:18.736Z,1.77
2022-08-14T13:29:47.436Z,2.28
2022-08-14T13:32:17.797Z,2.00
2022-08-14T13:34:48.881Z,2.20
2022-08-14T13:37:19.510Z,1.90
2022-08-14T13:39:56.174Z,1.85
2022-08-14T13:42:27.671Z,2.00
2022-08-14T13:45:01.989Z,1.95
2022-08-14T13:47:33.146Z,1.80
2022-08-14T13:50:04.652Z,2.00
2022-08-14T13:55:28.003Z,1.80
2022-08-14T13:58:03.233Z,1.90
2022-08-14T14:00:53.425Z,1.77
2022-08-14T14:03:24.298Z,2.00
2022-08-14T14:05:55.970Z,1.80
2022-08-14T14:08:45.976Z,1.90
2022-08-14T14:11:15.983Z,1.63
2022-08-14T14:13:46.026Z,1.65
2022-08-14T14:16:15.529Z,1.90
2022-08-14T14:19:00.229Z,1.88
2022-08-14T14:21:30.569Z,1.45
2022-08-14T14:23:59.579Z,1.63
2022-08-14T14:26:30.227Z,1.60
2022-08-14T14:29:03.543Z,1.88
2022-08-14T14:31:31.165Z,1.67
2022-08-14T14:34:07.700Z,1.60
2022-08-14T14:36:55.578Z,1.98
2022-08-14T14:39:26.843Z,1.58
2022-08-14T14:41:59.421Z,1.58
2022-08-14T14:44:33.213Z,1.67
2022-08-14T14:47:00.770Z,1.63
2022-08-14T14:49:41.571Z,1.55
2022-08-14T14:52:26.559Z,1.60
2022-08-14T14:55:05.498Z,1.85
2022-08-14T14:57:36.359Z,1.90
2022-08-14T15:00:12.788Z,1.80
2022-08-14T15:02:51.970Z,1.50
2022-08-14T15:05:20.122Z,1.77
2022-08-14T15:07:51.161Z,2.17
2022-08-14T15:10:27.553Z,2.13
2022-08-14T15:13:00.116Z,1.58
2022-08-14T15:15:27.409Z,1.80
2022-08-14T15:17:58.417Z,1.77
2022-08-14T15:20:30.336Z,1.70
2022-08-14T15:23:11.943Z,1.73
2022-08-14T15:25:52.429Z,1.50
2022-08-14T15:28:23.230Z,1.60
2022-08-14T15:30:57.790Z,1.80
2022-08-14T15:34:00.931Z,1.65
2022-08-14T15:36:35.247Z,1.40
2022-08-14T15:39:02.600Z,1.43
2022-08-14T15:41:33.665Z,1.80
2022-08-14T15:44:25.605Z,1.63
2022-08-14T15:46:59.601Z,1.45
2022-08-14T15:49:34.501Z,1.63
2022-08-14T15:52:03.146Z,1.40
2022-08-14T15:54:31.259Z,1.55
2022-08-14T15:56:58.497Z,1.70
2022-08-14T15:59:27.168Z,1.70
2022-08-14T16:01:55.099Z,1.70
2022-08-14T16:04:28.821Z,1.60
2022-08-14T16:06:58.014Z,1.50
2022-08-14T16:09:24.721Z,1.70
2022-08-14T16:11:54.000Z,1.60
2022-08-14T16:14:22.002Z,1.85
2022-08-14T16:16:59.829Z,1.63
2022-08-14T16:19:30.338Z,1.58
2022-08-14T16:23:10.617Z,1.40
2022-08-14T16:25:00.479Z,1.30
2022-08-14T16:27:39.658Z,1.33
2022-08-14T16:30:24.488Z,1.38
2022-08-14T16:32:56.578Z,1.60
2022-08-14T16:35:42.922Z,1.60
2022-08-14T16:38:29.407Z,1.33
2022-08-14T16:41:23.224Z,1.40
2022-08-14T16:43:53.593Z,1.40
2022-08-14T16:46:26.408Z,1.55
2022-08-14T16:48:58.400Z,1.33
2022-08-14T16:51:27.979Z,1.40
2022-08-14T16:53:59.110Z,1.38
2022-08-14T16:56:30.780Z,1.50
2022-08-14T16:59:07.575Z,3.58
2022-08-14T17:01:37.048Z,5.20
2022-08-14T17:04:25.028Z,3.42
2022-08-14T17:06:59.119Z,2.38
2022-08-14T17:09:30.831Z,1.77
2022-08-14T17:12:07.326Z,1.75
2022-08-14T17:15:11.154Z,1.70
2022-08-14T17:17:57.886Z,1.70
2022-08-14T17:20:53.121Z,2.30
2022-08-14T17:23:18.373Z,1.58
2022-08-14T17:25:50.827Z,1.90
2022-08-14T17:28:52.366Z,1.67
2022-08-14T17:31:13.157Z,1.40
2022-08-14T17:33:52.358Z,2.53
2022-08-14T17:36:22.976Z,5.47
2022-08-14T17:39:11.977Z,2.28
2022-08-14T17:41:48.349Z,1.88
2022-08-14T17:44:45.165Z,2.20
2022-08-14T17:47:14.697Z,1.88
2022-08-14T17:49:51.670Z,1.80
2022-08-14T17:52:33.861Z,1.80
2022-08-14T17:55:02.207Z,1.75
2022-08-14T17:57:35.478Z,2.00
2022-08-14T18:00:14.863Z,2.10
2022-08-14T18:02:50.520Z,1.92
2022-08-14T18:05:23.479Z,2.05
2022-08-14T18:08:33.907Z,1.73
2022-08-14T18:10:56.022Z,1.98
2022-08-14T18:13:49.787Z,1.90
2022-08-14T18:16:20.125Z,1.90
2022-08-14T18:18:51.661Z,1.80
2022-08-14T18:21:40.316Z,1.77
2022-08-14T18:24:28.102Z,2.00
2022-08-14T18:27:22.905Z,2.05
2022-08-14T18:29:54.634Z,2.13
2022-08-14T18:32:31.090Z,2.40
2022-08-14T18:35:11.267Z,2.00
2022-08-14T18:37:42.010Z,2.25
2022-08-14T18:40:22.913Z,1.77
2022-08-14T18:43:03.414Z,2.40
2022-08-14T18:45:33.018Z,2.10
2022-08-14T18:48:18.784Z,2.30
2022-08-14T18:51:03.419Z,2.00
2022-08-14T18:53:50.853Z,2.10
2022-08-14T18:56:39.564Z,2.53
2022-08-14T18:59:37.454Z,2.83
2022-08-14T19:02:30.482Z,2.10
2022-08-14T19:05:03.553Z,2.25
2022-08-14T19:07:33.878Z,2.15
2022-08-14T19:10:05.743Z,2.20
2022-08-14T19:12:56.543Z,2.10
2022-08-14T19:15:29.841Z,2.25
2022-08-14T19:18:14.162Z,2.40
2022-08-14T19:21:01.428Z,2.25
2022-08-14T19:23:44.242Z,2.13
2022-08-14T19:26:37.619Z,2.58
2022-08-14T19:29:26.106Z,2.00
2022-08-14T19:32:14.136Z,2.10
2022-08-14T19:34:52.658Z,2.45
2022-08-14T19:37:56.236Z,2.50
2022-08-14T19:40:35.586Z,2.90
2022-08-14T19:43:06.580Z,2.13
2022-08-14T19:45:39.384Z,2.40
2022-08-14T19:48:16.312Z,2.22
2022-08-14T19:50:46.264Z,2.22
2022-08-14T19:53:18.680Z,2.55
2022-08-14T19:56:02.016Z,3.13
2022-08-14T19:58:55.230Z,2.90
2022-08-14T20:01:37.041Z,2.85
2022-08-14T20:04:08.174Z,2.95
2022-08-14T20:06:55.328Z,3.00
2022-08-14T20:11:03.749Z,3.58
2022-08-14T20:12:35.019Z,4.18
2022-08-14T20:17:40.619Z,4.72
2022-08-14T20:20:30.749Z,5.15
2022-08-14T20:23:02.462Z,4.97
2022-08-14T20:25:45.497Z,4.35
2022-08-14T20:28:32.724Z,4.90
2022-08-14T20:31:37.254Z,4.40
2022-08-14T20:34:24.147Z,5.80
2022-08-14T20:37:11.563Z,6.40
2022-08-14T20:39:54.863Z,4.75
2022-08-14T20:42:50.394Z,3.60
2022-08-14T20:45:21.583Z,4.80
2022-08-14T20:48:00.765Z,4.40
2022-08-14T20:50:31.873Z,3.42
2022-08-14T20:53:00.656Z,3.38
2022-08-14T20:55:41.476Z,2.97
2022-08-14T20:58:43.984Z,2.10
2022-08-14T21:01:18.842Z,2.83
2022-08-14T21:03:57.342Z,2.97
2022-08-14T21:07:23.434Z,3.20
2022-08-14T21:10:05.691Z,3.40
2022-08-14T21:12:34.338Z,4.10
2022-08-14T21:15:02.535Z,3.97
2022-08-14T21:17:32.275Z,3.83
2022-08-14T21:20:25.505Z,3.83
2022-08-14T21:23:00.145Z,3.28
2022-08-14T21:25:31.719Z,3.72
2022-08-14T21:28:04.749Z,3.15
2022-08-14T21:30:46.969Z,4.05
2022-08-14T21:33:22.598Z,3.30
2022-08-14T21:35:54.872Z,3.80
2022-08-14T21:38:33.590Z,4.00
2022-08-14T21:41:42.534Z,3.22
2022-08-14T21:44:17.061Z,3.50
2022-08-14T21:46:53.509Z,3.92
2022-08-14T21:49:38.700Z,3.47
2022-08-14T21:52:49.200Z,3.67
2022-08-14T21:55:09.256Z,3.05
2022-08-14T21:58:46.152Z,3.50
2022-08-14T22:00:36.610Z,3.33
2022-08-14T22:03:09.011Z,3.42
2022-08-14T22:05:41.224Z,3.00
2022-08-14T22:08:14.849Z,2.90
2022-08-14T22:10:46.399Z,3.10
2022-08-14T22:13:19.261Z,2.85
2022-08-14T22:15:49.489Z,3.00
2022-08-14T22:18:20.334Z,2.90
2022-08-14T22:20:48.469Z,3.22
2022-08-14T22:23:22.980Z,2.95
2022-08-14T22:25:51.129Z,2.67
2022-08-14T22:28:25.524Z,2.70
2022-08-14T22:30:57.634Z,3.08
2022-08-14T22:33:31.005Z,3.28
2022-08-14T22:36:00.452Z,3.10
2022-08-14T22:38:37.388Z,3.00
2022-08-14T22:41:29.144Z,2.97
2022-08-14T22:43:59.469Z,2.70
2022-08-14T22:48:54.480Z,2.85
2022-08-14T22:51:27.510Z,2.85
2022-08-14T22:53:58.163Z,2.95
2022-08-14T22:56:29.017Z,2.92
2022-08-14T22:59:01.170Z,2.60
2022-08-14T23:01:46.149Z,2.75
2022-08-14T23:04:34.305Z,3.00
2022-08-14T23:07:05.268Z,3.13
2022-08-14T23:09:38.665Z,2.70
2022-08-14T23:12:27.875Z,2.83
2022-08-14T23:14:56.261Z,2.72
2022-08-14T23:17:23.086Z,2.72
2022-08-14T23:19:56.121Z,2.92
2022-08-14T23:22:26.287Z,3.00
2022-08-14T23:24:57.747Z,2.72
2022-08-14T23:27:31.936Z,3.13
2022-08-14T23:30:31.130Z,3.20
2022-08-14T23:33:01.839Z,3.30
2022-08-14T23:35:28.719Z,3.17
2022-08-14T23:38:05.565Z,2.70
2022-08-14T23:40:34.455Z,2.20
2022-08-14T23:43:14.642Z,2.70
2022-08-14T23:45:48.437Z,2.80
2022-08-14T23:48:27.674Z,2.85
2022-08-14T23:50:59.002Z,3.00
2022-08-14T23:56:30.390Z,2.78
2022-08-14T23:59:01.797Z,3.05
